createdAt,value
2019-05-29T00:00:54.941Z,17.08
2019-05-29T00:03:26.550Z,17.07
2019-05-29T00:06:00.057Z,16.48
2019-05-29T00:08:31.684Z,15.90
2019-05-29T00:11:03.455Z,15.41
2019-05-29T00:13:35.183Z,14.97
2019-05-29T00:16:06.915Z,15.00
2019-05-29T00:18:38.644Z,15.90
2019-05-29T00:21:11.677Z,16.78
2019-05-29T00:23:44.084Z,17.52
2019-05-29T00:26:16.608Z,17.10
2019-05-29T00:28:49.595Z,16.45
2019-05-29T00:31:21.432Z,15.90
2019-05-29T00:33:53.238Z,15.42
2019-05-29T00:36:24.962Z,14.94
2019-05-29T00:38:56.963Z,14.53
2019-05-29T00:41:28.761Z,14.15
2019-05-29T00:44:00.592Z,14.41
2019-05-29T00:46:33.610Z,15.38
2019-05-29T00:49:05.335Z,15.70
2019-05-29T00:51:37.059Z,15.14
2019-05-29T00:54:08.792Z,14.63
2019-05-29T00:56:40.621Z,14.18
2019-05-29T00:59:13.047Z,13.82
2019-05-29T01:01:44.721Z,13.48
2019-05-29T01:04:16.460Z,13.58
2019-05-29T01:06:48.288Z,14.47
2019-05-29T01:09:20.752Z,15.28
2019-05-29T01:11:53.874Z,15.34
2019-05-29T01:14:25.699Z,14.82
2019-05-29T01:16:57.426Z,14.34
2019-05-29T01:19:29.153Z,13.92
2019-05-29T01:22:02.051Z,13.55
2019-05-29T01:24:33.871Z,13.24
2019-05-29T01:27:05.695Z,13.63
2019-05-29T01:29:37.422Z,14.63
2019-05-29T01:32:09.319Z,15.55
2019-05-29T01:34:40.951Z,15.59
2019-05-29T01:37:13.899Z,14.93
2019-05-29T01:39:46.328Z,14.42
2019-05-29T01:42:19.383Z,13.97
2019-05-29T01:45:06.374Z,13.62
2019-05-29T01:47:24.390Z,13.24
2019-05-29T01:49:56.282Z,12.93
2019-05-29T01:52:28.133Z,13.41
2019-05-29T01:55:00.201Z,14.47
2019-05-29T01:57:33.169Z,15.32
2019-05-29T02:00:08.301Z,15.27
2019-05-29T02:02:40.122Z,14.70
2019-05-29T02:05:12.046Z,14.15
2019-05-29T02:07:43.654Z,13.73
2019-05-29T02:10:18.373Z,13.34
2019-05-29T02:12:50.262Z,12.99
2019-05-29T02:15:29.962Z,12.63
2019-05-29T02:17:55.307Z,13.02
2019-05-29T02:20:27.250Z,13.97
2019-05-29T02:22:59.120Z,14.87
2019-05-29T02:25:30.845Z,15.48
2019-05-29T02:28:02.684Z,14.93
2019-05-29T02:30:34.405Z,14.32
2019-05-29T02:33:08.901Z,13.83
2019-05-29T02:35:40.620Z,13.37
2019-05-29T02:38:13.348Z,12.95
2019-05-29T02:40:46.737Z,12.58
2019-05-29T02:43:19.235Z,12.20
2019-05-29T02:45:54.718Z,12.58
2019-05-29T02:48:27.305Z,13.63
2019-05-29T02:50:59.523Z,14.56
2019-05-29T02:53:31.239Z,15.34
2019-05-29T02:56:03.063Z,15.30
2019-05-29T02:58:34.788Z,14.58
2019-05-29T03:01:06.510Z,14.01
2019-05-29T03:03:40.134Z,13.55
2019-05-29T03:06:12.199Z,13.11
2019-05-29T03:08:44.096Z,12.72
2019-05-29T03:11:15.728Z,12.37
2019-05-29T03:13:47.913Z,12.01
2019-05-29T03:16:21.166Z,12.45
2019-05-29T03:18:52.898Z,13.56
2019-05-29T03:21:26.051Z,14.53
2019-05-29T03:23:57.825Z,15.32
2019-05-29T03:26:31.437Z,14.84
2019-05-29T03:29:04.703Z,14.32
2019-05-29T03:31:43.551Z,13.86
2019-05-29T03:34:10.161Z,13.51
2019-05-29T03:36:47.145Z,13.28
2019-05-29T03:39:15.408Z,13.14
2019-05-29T03:41:47.137Z,13.03
2019-05-29T03:44:19.695Z,13.25
2019-05-29T03:46:51.421Z,14.73
2019-05-29T03:49:24.470Z,16.74
2019-05-29T03:51:56.197Z,17.74
2019-05-29T03:54:28.835Z,18.12
2019-05-29T03:57:01.247Z,18.60
2019-05-29T03:59:37.490Z,19.02
2019-05-29T04:02:09.388Z,18.92
2019-05-29T04:04:41.116Z,18.66
2019-05-29T04:07:14.384Z,18.29
2019-05-29T04:09:47.430Z,17.92
2019-05-29T04:12:20.766Z,17.52
2019-05-29T04:14:54.603Z,17.15
2019-05-29T04:17:29.593Z,16.76
2019-05-29T04:20:01.523Z,16.42
2019-05-29T04:22:41.053Z,16.08
2019-05-29T04:25:14.091Z,15.74
2019-05-29T04:27:50.407Z,15.45
2019-05-29T04:30:22.478Z,15.15
2019-05-29T04:32:54.144Z,14.87
2019-05-29T04:35:25.880Z,14.59
2019-05-29T04:37:58.586Z,14.34
2019-05-29T04:40:30.588Z,14.10
2019-05-29T04:43:02.715Z,13.90
2019-05-29T04:45:37.226Z,13.70
2019-05-29T04:48:08.074Z,13.52
2019-05-29T04:50:40.594Z,13.37
2019-05-29T04:53:12.990Z,13.23
2019-05-29T04:55:44.886Z,13.11
2019-05-29T04:58:16.617Z,13.02
2019-05-29T05:00:58.634Z,13.03
2019-05-29T05:03:21.658Z,14.13
2019-05-29T05:05:53.399Z,15.35
2019-05-29T05:08:25.251Z,15.70
2019-05-29T05:10:56.977Z,15.45
2019-05-29T05:13:29.461Z,15.32
2019-05-29T05:16:03.270Z,15.25
2019-05-29T05:18:35.859Z,15.21
2019-05-29T05:21:07.921Z,15.15
2019-05-29T05:23:40.502Z,15.27
2019-05-29T05:26:12.733Z,15.41
2019-05-29T05:28:46.048Z,15.69
2019-05-29T05:31:18.009Z,15.74
2019-05-29T05:33:49.861Z,15.76
2019-05-29T05:36:21.856Z,15.91
2019-05-29T05:38:53.695Z,16.07
2019-05-29T05:41:25.425Z,16.24
2019-05-29T05:43:57.150Z,16.35
2019-05-29T05:46:28.895Z,16.46
2019-05-29T05:49:00.732Z,16.70
2019-05-29T05:51:33.459Z,17.19
2019-05-29T05:54:06.144Z,17.90
2019-05-29T05:56:37.792Z,18.88
2019-05-29T05:59:09.644Z,19.79
2019-05-29T06:01:42.200Z,20.82
2019-05-29T06:04:14.031Z,21.93
2019-05-29T06:06:46.127Z,22.98
2019-05-29T06:09:19.502Z,23.84
2019-05-29T06:11:51.136Z,24.61
2019-05-29T06:14:22.855Z,25.30
2019-05-29T06:16:54.584Z,25.93
2019-05-29T06:19:26.433Z,26.51
2019-05-29T06:21:58.160Z,26.99
2019-05-29T06:24:30.878Z,27.27
2019-05-29T06:27:02.619Z,27.06
2019-05-29T06:29:35.222Z,26.95
2019-05-29T06:32:07.381Z,27.27
2019-05-29T06:34:39.611Z,27.64
2019-05-29T06:37:12.667Z,27.83
2019-05-29T06:39:44.503Z,27.85
2019-05-29T06:42:16.259Z,27.96
2019-05-29T06:44:49.823Z,28.17
2019-05-29T06:47:21.602Z,28.50
2019-05-29T06:49:53.336Z,28.93
2019-05-29T06:52:25.066Z,29.31
2019-05-29T06:54:57.684Z,29.73
2019-05-29T06:57:29.515Z,29.52
2019-05-29T07:00:01.278Z,29.44
2019-05-29T07:02:34.300Z,29.85
2019-05-29T07:05:08.399Z,30.35
2019-05-29T07:07:40.428Z,30.55
2019-05-29T07:10:12.975Z,30.81
2019-05-29T07:12:44.755Z,31.00
2019-05-29T07:15:17.316Z,30.78
2019-05-29T07:17:48.944Z,30.66
2019-05-29T07:20:20.965Z,30.43
2019-05-29T07:22:52.666Z,30.16
2019-05-29T07:25:24.480Z,30.07
2019-05-29T07:27:56.531Z,29.95
2019-05-29T07:30:28.762Z,29.72
2019-05-29T07:33:00.590Z,29.77
2019-05-29T07:35:32.352Z,30.10
2019-05-29T07:38:04.339Z,30.17
2019-05-29T07:40:36.179Z,30.37
2019-05-29T07:43:07.900Z,30.27
2019-05-29T07:45:40.574Z,30.06
2019-05-29T07:48:12.982Z,30.13
2019-05-29T07:50:46.070Z,30.28
2019-05-29T07:53:19.314Z,30.31
2019-05-29T07:55:51.055Z,30.43
2019-05-29T07:58:22.824Z,30.71
2019-05-29T08:01:12.199Z,30.47
2019-05-29T08:03:28.181Z,30.00
2019-05-29T08:05:59.931Z,29.72
2019-05-29T08:08:31.706Z,29.65
2019-05-29T08:11:03.474Z,29.26
2019-05-29T08:13:35.221Z,29.00
2019-05-29T08:16:06.954Z,28.87
2019-05-29T08:18:41.132Z,28.55
2019-05-29T08:21:12.573Z,28.10
2019-05-29T08:23:44.433Z,27.55
2019-05-29T08:26:16.156Z,27.02
2019-05-29T08:28:48.901Z,26.52
2019-05-29T08:31:21.245Z,26.00
2019-05-29T08:33:53.000Z,25.49
2019-05-29T08:36:24.726Z,25.02
2019-05-29T08:38:56.496Z,24.58
2019-05-29T08:41:28.222Z,24.20
2019-05-29T08:43:59.986Z,23.95
2019-05-29T08:46:33.511Z,23.65
2019-05-29T08:49:05.039Z,23.48
2019-05-29T08:51:37.761Z,23.29
2019-05-29T08:54:23.647Z,23.02
2019-05-29T08:56:44.263Z,22.67
2019-05-29T08:59:16.312Z,22.37
2019-05-29T09:01:50.400Z,22.08
2019-05-29T09:04:21.753Z,21.81
2019-05-29T09:06:53.651Z,21.72
2019-05-29T09:09:26.743Z,21.51
2019-05-29T09:11:58.572Z,21.30
2019-05-29T09:14:30.483Z,21.13
2019-05-29T09:17:02.338Z,20.95
2019-05-29T09:19:34.154Z,20.89
2019-05-29T09:22:05.886Z,20.86
2019-05-29T09:24:37.625Z,20.77
2019-05-29T09:27:09.360Z,20.61
2019-05-29T09:29:41.188Z,20.55
2019-05-29T09:32:13.683Z,20.58
2019-05-29T09:34:47.705Z,20.65
2019-05-29T09:37:20.519Z,20.70
2019-05-29T09:39:52.465Z,20.70
2019-05-29T09:42:25.345Z,20.72
2019-05-29T09:44:57.519Z,20.79
2019-05-29T09:47:29.347Z,20.82
2019-05-29T09:50:01.391Z,20.86
2019-05-29T09:52:34.629Z,20.94
2019-05-29T09:55:08.105Z,20.96
2019-05-29T09:57:39.741Z,20.98
2019-05-29T10:00:12.709Z,20.96
2019-05-29T10:02:44.534Z,20.81
2019-05-29T10:05:17.548Z,20.75
2019-05-29T10:07:49.180Z,20.71
2019-05-29T10:10:21.458Z,20.67
2019-05-29T10:12:53.510Z,20.61
2019-05-29T10:15:26.888Z,20.61
2019-05-29T10:18:01.097Z,20.64
2019-05-29T10:20:33.121Z,20.72
2019-05-29T10:23:05.321Z,20.78
2019-05-29T10:25:37.094Z,20.74
2019-05-29T10:28:08.876Z,20.70
2019-05-29T10:30:42.257Z,20.64
2019-05-29T10:33:14.516Z,20.55
2019-05-29T10:35:49.049Z,20.48
2019-05-29T10:38:19.876Z,20.46
2019-05-29T10:41:00.542Z,20.43
2019-05-29T10:43:34.044Z,20.36
2019-05-29T10:45:58.829Z,20.23
2019-05-29T10:48:30.598Z,20.06
2019-05-29T10:51:02.525Z,19.96
2019-05-29T10:53:34.350Z,19.86
2019-05-29T10:56:08.260Z,19.78
2019-05-29T10:58:49.735Z,19.70
2019-05-29T11:01:13.624Z,19.72
2019-05-29T11:03:45.582Z,19.85
2019-05-29T11:06:17.478Z,20.02
2019-05-29T11:08:50.015Z,20.09
2019-05-29T11:11:22.107Z,20.12
2019-05-29T11:13:55.177Z,20.09
2019-05-29T11:16:27.259Z,20.13
2019-05-29T11:18:59.006Z,20.22
2019-05-29T11:21:30.988Z,20.16
2019-05-29T11:24:02.850Z,20.22
2019-05-29T11:26:34.591Z,20.20
2019-05-29T11:29:06.565Z,20.20
2019-05-29T11:31:38.398Z,20.19
2019-05-29T11:34:10.241Z,20.20
2019-05-29T11:36:41.975Z,20.13
2019-05-29T11:39:13.755Z,20.09
2019-05-29T11:41:45.503Z,19.98
2019-05-29T11:44:17.349Z,19.84
2019-05-29T11:46:50.166Z,19.74
2019-05-29T11:49:21.995Z,19.62
2019-05-29T11:51:55.356Z,19.53
2019-05-29T11:54:27.064Z,19.46
2019-05-29T14:00:17.085Z,19.49
2019-05-29T14:02:37.693Z,19.54
2019-05-29T14:05:10.726Z,19.53
2019-05-29T14:07:42.374Z,19.53
2019-05-29T14:10:15.992Z,19.47
2019-05-29T14:12:48.629Z,19.40
2019-05-29T14:15:21.631Z,19.36
2019-05-29T14:17:53.405Z,19.37
2019-05-29T14:20:26.263Z,19.39
2019-05-29T14:22:58.457Z,19.44
2019-05-29T14:25:30.519Z,19.46
2019-05-29T14:28:02.724Z,19.47
2019-05-29T14:30:34.648Z,19.47
2019-05-29T14:33:06.838Z,19.43
2019-05-29T14:35:40.011Z,19.37
2019-05-29T14:38:14.936Z,19.26
2019-05-29T14:40:45.468Z,19.19
2019-05-29T14:43:17.443Z,19.15
2019-05-29T14:45:49.561Z,19.05
2019-05-29T14:48:21.296Z,18.94
2019-05-29T14:50:54.573Z,18.89
2019-05-29T14:53:26.329Z,18.92
2019-05-29T14:55:58.070Z,18.91
2019-05-29T14:58:30.874Z,18.87
2019-05-29T15:01:03.111Z,18.82
2019-05-29T15:03:35.201Z,18.78
2019-05-29T15:06:07.615Z,18.78
2019-05-29T15:08:39.535Z,18.82
2019-05-29T15:11:12.081Z,18.82
2019-05-29T15:13:43.802Z,18.78
2019-05-29T15:16:15.457Z,18.72
2019-05-29T15:18:47.188Z,18.67
2019-05-29T15:21:18.942Z,18.63
2019-05-29T15:23:54.546Z,18.50
2019-05-29T15:26:27.097Z,18.42
2019-05-29T15:29:01.125Z,18.33
2019-05-29T15:31:35.760Z,18.29
2019-05-29T15:34:08.851Z,18.26
2019-05-29T15:36:41.682Z,18.26
2019-05-29T15:39:14.679Z,18.32
2019-05-29T15:41:47.881Z,18.35
2019-05-29T15:44:22.537Z,18.36
2019-05-29T15:46:58.428Z,18.37
2019-05-29T15:49:31.360Z,18.35
2019-05-29T15:52:03.182Z,18.29
2019-05-29T15:54:34.946Z,18.23
2019-05-29T15:57:06.955Z,18.22
2019-05-29T15:59:39.262Z,18.15
2019-05-29T16:02:11.473Z,18.11
2019-05-29T16:04:43.556Z,18.04
2019-05-29T16:07:16.102Z,17.98
2019-05-29T16:09:48.482Z,17.92
2019-05-29T16:12:20.306Z,17.94
2019-05-29T16:14:52.423Z,17.90
2019-05-29T16:17:24.719Z,17.87
2019-05-29T16:19:56.452Z,17.84
2019-05-29T16:22:28.328Z,17.80
2019-05-29T16:25:01.172Z,17.74
2019-05-29T16:27:33.522Z,17.67
2019-05-29T16:30:09.147Z,17.63
2019-05-29T16:32:42.310Z,17.53
2019-05-29T16:35:19.345Z,17.47
2019-05-29T16:37:52.237Z,17.36
2019-05-29T16:40:25.422Z,17.33
2019-05-29T16:42:58.392Z,17.22
2019-05-29T16:45:41.701Z,17.18
2019-05-29T16:48:16.475Z,17.08
2019-05-29T16:50:50.016Z,17.04
2019-05-29T16:53:23.321Z,16.95
2019-05-29T16:55:55.488Z,16.88
2019-05-29T16:58:27.179Z,16.83
2019-05-29T17:00:59.041Z,16.77
2019-05-29T17:03:30.807Z,16.73
2019-05-29T17:06:03.820Z,16.70
2019-05-29T17:08:35.723Z,16.70
2019-05-29T17:11:09.964Z,16.71
2019-05-29T17:13:41.678Z,16.67
2019-05-29T17:16:14.427Z,16.67
2019-05-29T17:18:47.930Z,16.62
2019-05-29T17:21:22.737Z,16.59
2019-05-29T17:23:54.511Z,16.52
2019-05-29T17:26:26.830Z,16.45
2019-05-29T17:28:59.659Z,16.39
2019-05-29T17:31:31.537Z,16.32
2019-05-29T17:34:04.475Z,16.22
2019-05-29T17:36:38.089Z,16.17
2019-05-29T17:39:10.988Z,16.07
2019-05-29T17:41:42.688Z,15.97
2019-05-29T17:44:15.441Z,15.88
2019-05-29T17:46:47.418Z,15.78
2019-05-29T17:49:28.968Z,15.70
2019-05-29T17:51:54.509Z,15.60
2019-05-29T17:54:27.796Z,15.50
2019-05-29T17:57:01.553Z,15.41
2019-05-29T17:59:34.288Z,15.35
2019-05-29T18:02:06.243Z,15.27
2019-05-29T18:04:38.223Z,15.17
2019-05-29T18:07:10.279Z,15.07
2019-05-29T18:09:43.679Z,14.96
2019-05-29T18:12:17.011Z,14.87
2019-05-29T18:14:53.233Z,14.76
2019-05-29T18:17:27.821Z,14.66
2019-05-29T18:20:01.390Z,14.55
2019-05-29T18:22:36.470Z,14.47
2019-05-29T18:25:11.636Z,14.36
2019-05-29T18:27:44.944Z,14.25
2019-05-29T18:30:18.441Z,14.13
2019-05-29T18:32:50.675Z,14.01
2019-05-29T18:35:22.921Z,13.90
2019-05-29T18:37:54.932Z,13.78
2019-05-29T18:40:26.880Z,13.65
2019-05-29T18:42:59.074Z,13.53
2019-05-29T18:45:31.069Z,13.39
2019-05-29T18:48:04.402Z,13.27
2019-05-29T18:50:36.628Z,13.14
2019-05-29T18:53:09.979Z,12.97
2019-05-29T18:55:42.953Z,12.86
2019-05-29T18:58:16.175Z,12.69
2019-05-29T19:00:48.770Z,12.56
2019-05-29T19:03:21.371Z,12.41
2019-05-29T19:05:55.229Z,13.03
2019-05-29T19:08:27.766Z,14.20
2019-05-29T19:10:59.533Z,15.24
2019-05-29T19:13:32.458Z,16.11
2019-05-29T19:16:04.311Z,16.12
2019-05-29T19:18:36.084Z,15.56
2019-05-29T19:21:12.460Z,15.07
2019-05-29T19:23:45.343Z,14.66
2019-05-29T19:26:19.589Z,14.29
2019-05-29T19:28:53.374Z,13.96
2019-05-29T19:31:27.058Z,13.61
2019-05-29T19:34:01.589Z,13.33
2019-05-29T19:36:35.266Z,13.04
2019-05-29T19:39:09.947Z,12.76
2019-05-29T19:41:41.807Z,12.49
2019-05-29T19:44:13.800Z,12.27
2019-05-29T19:46:53.644Z,12.04
2019-05-29T19:49:20.043Z,11.86
2019-05-29T19:51:52.353Z,11.68
2019-05-29T19:54:25.323Z,11.48
2019-05-29T19:56:57.576Z,11.28
2019-05-29T19:59:29.977Z,11.13
2019-05-29T20:02:03.640Z,10.95
2019-05-29T20:04:38.037Z,11.61
2019-05-29T20:07:09.672Z,12.82
2019-05-29T20:09:41.638Z,13.85
2019-05-29T20:12:16.549Z,14.76
2019-05-29T20:14:48.976Z,14.77
2019-05-29T20:17:22.544Z,14.24
2019-05-29T20:19:54.608Z,13.76
2019-05-29T20:22:28.569Z,13.38
2019-05-29T20:25:01.571Z,13.07
2019-05-29T20:27:34.223Z,12.78
2019-05-29T20:30:08.444Z,12.49
2019-05-29T20:32:40.259Z,12.26
2019-05-29T20:35:18.017Z,12.00
2019-05-29T20:37:49.689Z,11.78
2019-05-29T20:40:25.052Z,11.59
2019-05-29T20:42:56.896Z,11.44
2019-05-29T20:45:29.540Z,11.27
2019-05-29T20:48:02.756Z,11.10
2019-05-29T20:50:37.702Z,10.96
2019-05-29T20:53:11.192Z,10.82
2019-05-29T20:55:43.016Z,10.70
2019-05-29T20:58:24.417Z,10.60
2019-05-29T21:00:56.151Z,10.48
2019-05-29T21:03:27.946Z,10.40
2019-05-29T21:06:04.662Z,10.29
2019-05-29T21:08:38.956Z,10.20
2019-05-29T21:11:12.834Z,10.13
2019-05-29T21:13:45.275Z,10.05
2019-05-29T21:16:17.102Z,9.99
2019-05-29T21:18:54.432Z,9.89
2019-05-29T21:21:30.217Z,9.84
2019-05-29T21:24:02.137Z,9.77
2019-05-29T21:26:34.983Z,9.68
2019-05-29T21:29:16.686Z,9.62
2019-05-29T21:31:49.562Z,9.55
2019-05-29T21:34:23.599Z,9.49
2019-05-29T21:36:55.421Z,9.41
2019-05-29T21:39:27.132Z,9.37
2019-05-29T21:41:58.956Z,9.29
2019-05-29T21:44:30.681Z,9.21
2019-05-29T21:47:02.399Z,9.15
2019-05-29T21:49:34.222Z,9.05
2019-05-29T21:52:06.122Z,8.96
2019-05-29T21:54:37.740Z,8.88
2019-05-29T21:57:09.567Z,8.79
2019-05-29T21:59:41.647Z,8.70
2019-05-29T22:02:13.578Z,8.65
2019-05-29T22:04:46.467Z,8.57
2019-05-29T22:07:19.023Z,8.46
2019-05-29T22:09:50.740Z,8.42
2019-05-29T22:12:22.451Z,8.32
2019-05-29T22:14:55.162Z,8.25
2019-05-29T22:17:26.969Z,8.15
2019-05-29T22:19:59.042Z,8.09
2019-05-29T22:22:31.136Z,7.98
2019-05-29T22:25:02.807Z,9.27
2019-05-29T22:27:36.010Z,10.83
2019-05-29T22:30:09.353Z,11.82
2019-05-29T22:32:40.970Z,11.93
2019-05-29T22:35:13.408Z,11.43
2019-05-29T22:37:45.327Z,10.99
2019-05-29T22:40:17.709Z,10.65
2019-05-29T22:42:49.413Z,10.31
2019-05-29T22:45:21.515Z,10.01
2019-05-29T22:47:53.864Z,9.74
2019-05-29T22:50:25.913Z,9.44
2019-05-29T22:52:57.860Z,9.16
2019-05-29T22:55:30.034Z,8.90
2019-05-29T22:58:02.205Z,8.64
2019-05-29T23:00:36.585Z,9.16
2019-05-29T23:03:08.409Z,10.27
2019-05-29T23:05:40.160Z,11.20
2019-05-29T23:08:11.875Z,12.04
2019-05-29T23:10:43.723Z,12.79
2019-05-29T23:13:15.444Z,12.71
2019-05-29T23:15:47.188Z,12.07
2019-05-29T23:18:20.073Z,11.53
2019-05-29T23:20:52.408Z,11.04
2019-05-29T23:23:24.625Z,10.64
2019-05-29T23:25:56.560Z,10.23
2019-05-29T23:28:28.806Z,9.88
2019-05-29T23:31:01.028Z,9.55
2019-05-29T23:33:33.226Z,9.19
2019-05-29T23:36:05.230Z,8.91
2019-05-29T23:38:37.046Z,8.54
2019-05-29T23:41:08.768Z,8.28
2019-05-29T23:43:40.493Z,8.02
2019-05-29T23:46:12.319Z,8.95
2019-05-29T23:48:44.038Z,10.33
2019-05-29T23:51:15.777Z,11.21
2019-05-29T23:53:47.652Z,12.06
2019-05-29T23:56:19.314Z,12.01
2019-05-29T23:58:51.036Z,11.37
